sensor_id;sensor_type;location;lat;lon;timestamp;pressure;altitude;pressure_sealevel;temperature;humidity
77662;BME280;69666;52.136;5.424;2024-03-08T00:00:18;102004.81;;;3.07;82.21
77662;BME280;69666;52.136;5.424;2024-03-08T00:02:48;102000.03;;;3.01;82.31
77662;BME280;69666;52.136;5.424;2024-03-08T00:05:18;102000.16;;;2.89;83.05
77662;BME280;69666;52.136;5.424;2024-03-08T00:07:46;101988.81;;;2.87;83.07
77662;BME280;69666;52.136;5.424;2024-03-08T00:10:13;101996.09;;;2.95;82.31
77662;BME280;69666;52.136;5.424;2024-03-08T00:12:44;101987.44;;;3.03;81.46
77662;BME280;69666;52.136;5.424;2024-03-08T00:15:15;101986.88;;;2.99;81.43
77662;BME280;69666;52.136;5.424;2024-03-08T00:17:45;101993.31;;;2.96;81.36
77662;BME280;69666;52.136;5.424;2024-03-08T00:20:13;101982.78;;;2.85;82.32
77662;BME280;69666;52.136;5.424;2024-03-08T00:22:42;101990.91;;;2.93;81.21
77662;BME280;69666;52.136;5.424;2024-03-08T00:25:10;101983.22;;;2.90;81.20
77662;BME280;69666;52.136;5.424;2024-03-08T00:27:39;101978.00;;;2.89;81.09
77662;BME280;69666;52.136;5.424;2024-03-08T00:30:07;101979.56;;;2.91;81.08
77662;BME280;69666;52.136;5.424;2024-03-08T00:32:35;101983.75;;;2.84;81.24
77662;BME280;69666;52.136;5.424;2024-03-08T00:35:13;101990.06;;;2.83;81.14
77662;BME280;69666;52.136;5.424;2024-03-08T00:37:40;101984.88;;;2.82;81.47
77662;BME280;69666;52.136;5.424;2024-03-08T00:40:09;101987.38;;;2.74;81.35
77662;BME280;69666;52.136;5.424;2024-03-08T00:42:38;101969.97;;;2.70;81.64
77662;BME280;69666;52.136;5.424;2024-03-08T00:45:07;101980.91;;;2.66;81.55
77662;BME280;69666;52.136;5.424;2024-03-08T00:47:35;101982.97;;;2.63;81.92
77662;BME280;69666;52.136;5.424;2024-03-08T00:50:03;101979.22;;;2.56;82.58
77662;BME280;69666;52.136;5.424;2024-03-08T00:52:32;101976.09;;;2.51;82.83
77662;BME280;69666;52.136;5.424;2024-03-08T00:55:02;101978.22;;;2.57;82.10
77662;BME280;69666;52.136;5.424;2024-03-08T00:57:30;101963.66;;;2.61;81.43
77662;BME280;69666;52.136;5.424;2024-03-08T00:59:57;101959.34;;;2.60;81.23
77662;BME280;69666;52.136;5.424;2024-03-08T01:02:25;101954.44;;;2.55;81.50
77662;BME280;69666;52.136;5.424;2024-03-08T01:04:52;101959.19;;;2.52;81.29
77662;BME280;69666;52.136;5.424;2024-03-08T01:07:20;101950.75;;;2.47;81.86
77662;BME280;69666;52.136;5.424;2024-03-08T01:09:47;101946.94;;;2.40;82.33
77662;BME280;69666;52.136;5.424;2024-03-08T01:12:15;101936.19;;;2.41;81.88
77662;BME280;69666;52.136;5.424;2024-03-08T01:14:43;101940.22;;;2.36;82.04
77662;BME280;69666;52.136;5.424;2024-03-08T01:17:21;101931.97;;;2.39;81.59
77662;BME280;69666;52.136;5.424;2024-03-08T01:19:48;101933.06;;;2.36;81.75
77662;BME280;69666;52.136;5.424;2024-03-08T01:22:16;101931.53;;;2.33;82.02
77662;BME280;69666;52.136;5.424;2024-03-08T01:24:43;101924.22;;;2.26;82.50
77662;BME280;69666;52.136;5.424;2024-03-08T01:27:11;101923.38;;;2.25;82.10
77662;BME280;69666;52.136;5.424;2024-03-08T01:29:39;101924.78;;;2.29;81.47
77662;BME280;69666;52.136;5.424;2024-03-08T01:32:07;101914.97;;;2.20;82.20
77662;BME280;69666;52.136;5.424;2024-03-08T01:34:34;101910.34;;;2.22;81.59
77662;BME280;69666;52.136;5.424;2024-03-08T01:37:01;101911.63;;;2.28;81.04
77662;BME280;69666;52.136;5.424;2024-03-08T01:39:29;101905.88;;;2.23;81.33
77662;BME280;69666;52.136;5.424;2024-03-08T01:41:56;101904.47;;;2.19;81.24
77662;BME280;69666;52.136;5.424;2024-03-08T01:44:24;101902.91;;;2.16;81.50
77662;BME280;69666;52.136;5.424;2024-03-08T01:46:53;101898.44;;;2.07;82.03
77662;BME280;69666;52.136;5.424;2024-03-08T01:49:21;101896.19;;;2.12;81.29
77662;BME280;69666;52.136;5.424;2024-03-08T01:51:49;101889.75;;;2.15;81.08
77662;BME280;69666;52.136;5.424;2024-03-08T01:54:19;101890.03;;;2.12;81.07
77662;BME280;69666;52.136;5.424;2024-03-08T01:56:47;101887.50;;;2.10;81.19
77662;BME280;69666;52.136;5.424;2024-03-08T01:59:16;101888.47;;;2.09;80.47
77662;BME280;69666;52.136;5.424;2024-03-08T02:01:44;101889.63;;;2.16;80.23
77662;BME280;69666;52.136;5.424;2024-03-08T02:04:11;101892.81;;;2.01;81.25
77662;BME280;69666;52.136;5.424;2024-03-08T02:06:41;101877.69;;;2.01;80.65
77662;BME280;69666;52.136;5.424;2024-03-08T02:09:09;101886.97;;;2.07;80.25
77662;BME280;69666;52.136;5.424;2024-03-08T02:11:37;101880.09;;;2.04;80.29
77662;BME280;69666;52.136;5.424;2024-03-08T02:14:08;101880.09;;;2.04;79.91
77662;BME280;69666;52.136;5.424;2024-03-08T02:16:36;101882.31;;;1.99;80.04
77662;BME280;69666;52.136;5.424;2024-03-08T02:19:04;101874.06;;;2.02;79.71
77662;BME280;69666;52.136;5.424;2024-03-08T02:21:34;101870.00;;;1.98;79.66
77662;BME280;69666;52.136;5.424;2024-03-08T02:24:01;101874.03;;;1.92;80.04
77662;BME280;69666;52.136;5.424;2024-03-08T02:26:29;101871.50;;;1.91;79.95
77662;BME280;69666;52.136;5.424;2024-03-08T02:28:57;101867.16;;;1.90;79.81
77662;BME280;69666;52.136;5.424;2024-03-08T02:31:24;101856.53;;;1.90;79.89
77662;BME280;69666;52.136;5.424;2024-03-08T02:33:52;101859.72;;;1.84;80.07
77662;BME280;69666;52.136;5.424;2024-03-08T02:36:19;101857.91;;;1.84;79.70
77662;BME280;69666;52.136;5.424;2024-03-08T02:38:55;101851.63;;;1.85;79.80
77662;BME280;69666;52.136;5.424;2024-03-08T02:41:23;101844.88;;;1.81;79.94
77662;BME280;69666;52.136;5.424;2024-03-08T02:43:50;101842.63;;;1.77;79.70
77662;BME280;69666;52.136;5.424;2024-03-08T02:46:18;101844.31;;;1.78;79.53
77662;BME280;69666;52.136;5.424;2024-03-08T02:48:54;101839.00;;;1.78;79.49
77662;BME280;69666;52.136;5.424;2024-03-08T02:51:21;101834.91;;;1.74;79.49
77662;BME280;69666;52.136;5.424;2024-03-08T02:53:49;101836.09;;;1.60;80.08
77662;BME280;69666;52.136;5.424;2024-03-08T02:56:19;101828.97;;;1.51;80.68
77662;BME280;69666;52.136;5.424;2024-03-08T02:58:46;101825.19;;;1.53;80.38
77662;BME280;69666;52.136;5.424;2024-03-08T03:01:16;101819.88;;;1.53;80.21
77662;BME280;69666;52.136;5.424;2024-03-08T03:03:43;101820.16;;;1.50;80.02
77662;BME280;69666;52.136;5.424;2024-03-08T03:06:10;101819.31;;;1.50;80.05
77662;BME280;69666;52.136;5.424;2024-03-08T03:08:39;101820.16;;;1.50;80.18
77662;BME280;69666;52.136;5.424;2024-03-08T03:11:10;101814.00;;;1.50;80.03
77662;BME280;69666;52.136;5.424;2024-03-08T03:13:37;101814.13;;;1.48;80.10
77662;BME280;69666;52.136;5.424;2024-03-08T03:16:05;101811.47;;;1.48;79.88
77662;BME280;69666;52.136;5.424;2024-03-08T03:18:34;101809.09;;;1.45;80.03
77662;BME280;69666;52.136;5.424;2024-03-08T03:21:01;101804.88;;;1.43;80.32
77662;BME280;69666;52.136;5.424;2024-03-08T03:23:36;101803.78;;;1.45;79.91
77662;BME280;69666;52.136;5.424;2024-03-08T03:26:04;101800.53;;;1.42;80.35
77662;BME280;69666;52.136;5.424;2024-03-08T03:28:34;101801.06;;;1.36;80.71
77662;BME280;69666;52.136;5.424;2024-03-08T03:31:03;101800.22;;;1.35;80.57
77662;BME280;69666;52.136;5.424;2024-03-08T03:33:35;101792.13;;;1.37;80.26
77662;BME280;69666;52.136;5.424;2024-03-08T03:36:04;101792.06;;;1.27;81.04
77662;BME280;69666;52.136;5.424;2024-03-08T03:38:37;101789.88;;;1.32;80.75
77662;BME280;69666;52.136;5.424;2024-03-08T03:41:05;101788.91;;;1.33;80.67
77662;BME280;69666;52.136;5.424;2024-03-08T03:43:38;101793.22;;;1.34;80.26
77662;BME280;69666;52.136;5.424;2024-03-08T03:46:09;101791.41;;;1.35;80.28
77662;BME280;69666;52.136;5.424;2024-03-08T03:48:38;101786.25;;;1.33;80.50
77662;BME280;69666;52.136;5.424;2024-03-08T03:51:05;101784.25;;;1.25;81.05
77662;BME280;69666;52.136;5.424;2024-03-08T03:53:34;101779.78;;;1.26;81.12
77662;BME280;69666;52.136;5.424;2024-03-08T03:56:01;101779.78;;;1.26;80.98
77662;BME280;69666;52.136;5.424;2024-03-08T03:58:29;101777.38;;;1.23;81.27
77662;BME280;69666;52.136;5.424;2024-03-08T04:00:56;101779.06;;;1.24;80.94
77662;BME280;69666;52.136;5.424;2024-03-08T04:03:23;101777.06;;;1.16;81.51
77662;BME280;69666;52.136;5.424;2024-03-08T04:05:51;101776.94;;;1.18;81.33
77662;BME280;69666;52.136;5.424;2024-03-08T04:08:19;101781.41;;;1.17;81.62
77662;BME280;69666;52.136;5.424;2024-03-08T04:10:46;101784.25;;;1.25;80.59
77662;BME280;69666;52.136;5.424;2024-03-08T04:13:17;101776.41;;;1.24;80.53
77662;BME280;69666;52.136;5.424;2024-03-08T04:15:44;101777.25;;;1.24;80.65
77662;BME280;69666;52.136;5.424;2024-03-08T04:18:16;101764.09;;;1.23;80.88
77662;BME280;69666;52.136;5.424;2024-03-08T04:20:43;101769.22;;;1.15;81.28
77662;BME280;69666;52.136;5.424;2024-03-08T04:23:10;101768.78;;;1.10;81.44
77662;BME280;69666;52.136;5.424;2024-03-08T04:25:38;101759.00;;;1.10;81.63
77662;BME280;69666;52.136;5.424;2024-03-08T04:28:06;101758.88;;;1.12;81.13
77662;BME280;69666;52.136;5.424;2024-03-08T04:30:34;101759.59;;;1.14;80.96
77662;BME280;69666;52.136;5.424;2024-03-08T04:33:04;101752.16;;;1.08;81.24
77662;BME280;69666;52.136;5.424;2024-03-08T04:35:32;101759.81;;;1.01;81.55
77662;BME280;69666;52.136;5.424;2024-03-08T04:38:00;101755.63;;;0.98;81.95
77662;BME280;69666;52.136;5.424;2024-03-08T04:40:27;101757.03;;;1.03;81.35
77662;BME280;69666;52.136;5.424;2024-03-08T04:42:54;101755.91;;;1.05;81.25
77662;BME280;69666;52.136;5.424;2024-03-08T04:45:22;101748.09;;;1.04;81.23
77662;BME280;69666;52.136;5.424;2024-03-08T04:47:49;101745.00;;;0.98;81.51
77662;BME280;69666;52.136;5.424;2024-03-08T04:50:17;101751.16;;;0.99;81.58
77662;BME280;69666;52.136;5.424;2024-03-08T04:52:45;101742.16;;;0.90;81.81
77662;BME280;69666;52.136;5.424;2024-03-08T04:55:27;101744.75;;;1.02;81.28
77662;BME280;69666;52.136;5.424;2024-03-08T04:57:56;101745.84;;;0.99;81.23
77662;BME280;69666;52.136;5.424;2024-03-08T05:00:24;101737.88;;;0.99;80.88
77662;BME280;69666;52.136;5.424;2024-03-08T05:02:52;101742.59;;;0.95;81.36
77662;BME280;69666;52.136;5.424;2024-03-08T05:05:20;101743.72;;;0.93;81.56
77662;BME280;69666;52.136;5.424;2024-03-08T05:07:48;101741.13;;;0.82;82.22
77662;BME280;69666;52.136;5.424;2024-03-08T05:10:15;101738.34;;;0.83;81.62
77662;BME280;69666;52.136;5.424;2024-03-08T05:12:44;101740.47;;;0.89;81.08
77662;BME280;69666;52.136;5.424;2024-03-08T05:15:12;101744.34;;;0.85;81.57
77662;BME280;69666;52.136;5.424;2024-03-08T05:17:39;101733.47;;;0.88;81.46
77662;BME280;69666;52.136;5.424;2024-03-08T05:20:10;101740.47;;;0.89;81.07
77662;BME280;69666;52.136;5.424;2024-03-08T05:22:40;101741.31;;;0.90;81.08
77662;BME280;69666;52.136;5.424;2024-03-08T05:25:09;101736.53;;;0.84;81.32
77662;BME280;69666;52.136;5.424;2024-03-08T05:27:37;101728.19;;;0.88;80.99
77662;BME280;69666;52.136;5.424;2024-03-08T05:30:05;101732.06;;;0.84;81.21
77662;BME280;69666;52.136;5.424;2024-03-08T05:32:32;101723.06;;;0.76;81.51
77662;BME280;69666;52.136;5.424;2024-03-08T05:35:00;101725.25;;;0.71;81.85
77662;BME280;69666;52.136;5.424;2024-03-08T05:37:39;101726.09;;;0.71;82.13
77662;BME280;69666;52.136;5.424;2024-03-08T05:40:07;101730.81;;;0.68;81.71
77662;BME280;69666;52.136;5.424;2024-03-08T05:42:43;101725.41;;;0.69;81.97
77662;BME280;69666;52.136;5.424;2024-03-08T05:45:11;101719.97;;;0.71;81.57
77662;BME280;69666;52.136;5.424;2024-03-08T05:47:39;101719.38;;;0.67;81.76
77662;BME280;69666;52.136;5.424;2024-03-08T05:50:07;101715.31;;;0.63;82.21
77662;BME280;69666;52.136;5.424;2024-03-08T05:52:38;101715.75;;;0.68;81.85
77662;BME280;69666;52.136;5.424;2024-03-08T05:55:06;101721.06;;;0.68;81.48
77662;BME280;69666;52.136;5.424;2024-03-08T05:57:35;101714.34;;;0.64;81.64
77662;BME280;69666;52.136;5.424;2024-03-08T06:00:09;101713.69;;;0.72;81.40
77662;BME280;69666;52.136;5.424;2024-03-08T06:02:43;101709.03;;;0.64;81.88
77662;BME280;69666;52.136;5.424;2024-03-08T06:05:11;101705.16;;;0.68;81.30
77662;BME280;69666;52.136;5.424;2024-03-08T06:07:38;101705.41;;;0.65;81.34
77662;BME280;69666;52.136;5.424;2024-03-08T06:10:11;101693.03;;;0.54;82.22
77662;BME280;69666;52.136;5.424;2024-03-08T06:12:51;101697.94;;;0.49;82.64
77662;BME280;69666;52.136;5.424;2024-03-08T06:15:19;101696.41;;;0.56;82.25
77662;BME280;69666;52.136;5.424;2024-03-08T06:17:48;101704.50;;;0.55;82.58
77662;BME280;69666;52.136;5.424;2024-03-08T06:20:16;101703.53;;;0.56;82.05
77662;BME280;69666;52.136;5.424;2024-03-08T06:22:43;101698.47;;;0.53;82.60
77662;BME280;69666;52.136;5.424;2024-03-08T06:25:12;101703.97;;;0.61;82.34
77662;BME280;69666;52.136;5.424;2024-03-08T06:27:43;101692.53;;;0.60;81.95
77662;BME280;69666;52.136;5.424;2024-03-08T06:30:11;101695.56;;;0.56;82.40
77662;BME280;69666;52.136;5.424;2024-03-08T06:32:40;101698.69;;;0.61;82.09
77662;BME280;69666;52.136;5.424;2024-03-08T06:35:10;101700.34;;;0.62;82.34
77662;BME280;69666;52.136;5.424;2024-03-08T06:37:39;101694.78;;;0.65;82.07
77662;BME280;69666;52.136;5.424;2024-03-08T06:40:07;101694.78;;;0.65;82.20
77662;BME280;69666;52.136;5.424;2024-03-08T06:42:37;101695.97;;;0.72;81.90
77662;BME280;69666;52.136;5.424;2024-03-08T06:45:05;101697.25;;;0.78;81.62
77662;BME280;69666;52.136;5.424;2024-03-08T06:47:33;101690.72;;;0.82;81.49
77662;BME280;69666;52.136;5.424;2024-03-08T06:50:00;101688.47;;;0.77;82.06
77662;BME280;69666;52.136;5.424;2024-03-08T06:52:28;101689.44;;;0.76;82.22
77662;BME280;69666;52.136;5.424;2024-03-08T06:55:06;101687.94;;;0.83;82.13
77662;BME280;69666;52.136;5.424;2024-03-08T06:57:35;101687.41;;;0.89;81.75
77662;BME280;69666;52.136;5.424;2024-03-08T07:00:04;101684.88;;;0.88;82.08
77662;BME280;69666;52.136;5.424;2024-03-08T07:02:32;101687.16;;;0.92;81.93
77662;BME280;69666;52.136;5.424;2024-03-08T07:04:59;101683.25;;;0.96;82.02
77662;BME280;69666;52.136;5.424;2024-03-08T07:07:29;101685.91;;;0.96;82.30
77662;BME280;69666;52.136;5.424;2024-03-08T07:09:57;101684.22;;;0.95;82.48
77662;BME280;69666;52.136;5.424;2024-03-08T07:12:24;101675.44;;;1.05;81.85
77662;BME280;69666;52.136;5.424;2024-03-08T07:14:53;101680.69;;;1.16;81.80
77662;BME280;69666;52.136;5.424;2024-03-08T07:17:21;101674.97;;;1.20;81.60
77662;BME280;69666;52.136;5.424;2024-03-08T07:19:49;101679.59;;;1.28;81.41
77662;BME280;69666;52.136;5.424;2024-03-08T07:22:16;101671.81;;;1.36;81.40
77662;BME280;69666;52.136;5.424;2024-03-08T07:24:44;101676.84;;;1.39;81.68
77662;BME280;69666;52.136;5.424;2024-03-08T07:27:43;101665.59;;;1.66;81.90
77662;BME280;69666;52.136;5.424;2024-03-08T07:30:12;101671.66;;;1.97;81.53
77662;BME280;69666;52.136;5.424;2024-03-08T07:32:41;101665.06;;;2.30;80.57
77662;BME280;69666;52.136;5.424;2024-03-08T07:35:11;101664.34;;;2.57;79.78
77662;BME280;69666;52.136;5.424;2024-03-08T07:37:38;101653.41;;;2.97;78.92
77662;BME280;69666;52.136;5.424;2024-03-08T07:40:07;101656.34;;;3.31;78.38
77662;BME280;69666;52.136;5.424;2024-03-08T07:42:35;101653.38;;;3.61;77.50
77662;BME280;69666;52.136;5.424;2024-03-08T07:45:04;101644.94;;;4.02;77.90
77662;BME280;69666;52.136;5.424;2024-03-08T07:47:34;101643.00;;;4.29;75.03
77662;BME280;69666;52.136;5.424;2024-03-08T07:50:04;101641.25;;;4.64;76.64
77662;BME280;69666;52.136;5.424;2024-03-08T07:52:31;101649.59;;;4.95;75.11
77662;BME280;69666;52.136;5.424;2024-03-08T07:55:02;101640.69;;;5.20;73.29
77662;BME280;69666;52.136;5.424;2024-03-08T07:57:31;101636.22;;;5.29;73.25
77662;BME280;69666;52.136;5.424;2024-03-08T07:59:59;101636.84;;;5.23;73.52
77662;BME280;69666;52.136;5.424;2024-03-08T08:05:39;101626.03;;;4.90;73.61
77662;BME280;69666;52.136;5.424;2024-03-08T08:08:09;101629.25;;;4.68;72.43
77662;BME280;69666;52.136;5.424;2024-03-08T08:10:38;101624.50;;;4.54;73.07
77662;BME280;69666;52.136;5.424;2024-03-08T08:13:06;101623.00;;;4.33;72.84
77662;BME280;69666;52.136;5.424;2024-03-08T08:15:34;101618.38;;;4.18;72.83
77662;BME280;69666;52.136;5.424;2024-03-08T08:18:02;101620.72;;;4.13;73.95
77662;BME280;69666;52.136;5.424;2024-03-08T08:20:33;101622.00;;;3.91;73.67
77662;BME280;69666;52.136;5.424;2024-03-08T08:23:01;101612.72;;;3.95;73.89
77662;BME280;69666;52.136;5.424;2024-03-08T08:25:29;101612.41;;;3.98;73.31
77662;BME280;69666;52.136;5.424;2024-03-08T08:27:56;101611.88;;;4.12;75.06
77662;BME280;69666;52.136;5.424;2024-03-08T08:30:25;101613.72;;;4.38;74.78
77662;BME280;69666;52.136;5.424;2024-03-08T08:32:53;101604.94;;;4.79;74.25
77662;BME280;69666;52.136;5.424;2024-03-08T08:35:20;101606.16;;;5.27;73.54
77662;BME280;69666;52.136;5.424;2024-03-08T08:37:49;101595.56;;;5.76;73.79
77662;BME280;69666;52.136;5.424;2024-03-08T08:40:38;101594.09;;;6.30;73.07
77662;BME280;69666;52.136;5.424;2024-03-08T08:43:14;101587.81;;;6.78;68.61
77662;BME280;69666;52.136;5.424;2024-03-08T08:45:42;101589.28;;;7.28;69.81
77662;BME280;69666;52.136;5.424;2024-03-08T08:48:10;101581.22;;;7.59;67.01
77662;BME280;69666;52.136;5.424;2024-03-08T08:50:38;101576.56;;;7.98;65.66
77662;BME280;69666;52.136;5.424;2024-03-08T08:53:06;101568.78;;;8.26;66.87
77662;BME280;69666;52.136;5.424;2024-03-08T08:55:34;101568.56;;;8.66;64.85
77662;BME280;69666;52.136;5.424;2024-03-08T08:58:04;101564.28;;;8.86;64.96
77662;BME280;69666;52.136;5.424;2024-03-08T09:00:35;101561.03;;;9.20;65.80
77662;BME280;69666;52.136;5.424;2024-03-08T09:03:02;101555.88;;;9.61;64.46
77662;BME280;69666;52.136;5.424;2024-03-08T09:05:30;101552.66;;;9.93;62.58
77662;BME280;69666;52.136;5.424;2024-03-08T09:07:57;101554.13;;;10.17;64.11
77662;BME280;69666;52.136;5.424;2024-03-08T09:10:25;101540.25;;;10.48;62.09
77662;BME280;69666;52.136;5.424;2024-03-08T09:12:55;101543.78;;;10.49;60.57
77662;BME280;69666;52.136;5.424;2024-03-08T09:15:23;101545.75;;;10.61;61.67
77662;BME280;69666;52.136;5.424;2024-03-08T09:18:13;101542.63;;;11.06;58.17
77662;BME280;69666;52.136;5.424;2024-03-08T09:20:43;101535.88;;;11.23;58.90
77662;BME280;69666;52.136;5.424;2024-03-08T09:23:10;101534.28;;;11.55;60.86
77662;BME280;69666;52.136;5.424;2024-03-08T09:25:38;101534.13;;;11.76;56.02
77662;BME280;69666;52.136;5.424;2024-03-08T09:28:05;101527.94;;;11.89;55.91
77662;BME280;69666;52.136;5.424;2024-03-08T09:30:33;101517.94;;;12.16;59.91
77662;BME280;69666;52.136;5.424;2024-03-08T09:33:02;101519.13;;;12.53;56.53
77662;BME280;69666;52.136;5.424;2024-03-08T09:35:29;101514.31;;;12.55;55.92
77662;BME280;69666;52.136;5.424;2024-03-08T09:37:57;101509.28;;;12.78;55.31
77662;BME280;69666;52.136;5.424;2024-03-08T09:40:25;101508.09;;;13.12;54.78
77662;BME280;69666;52.136;5.424;2024-03-08T09:42:53;101504.25;;;13.33;52.38
77662;BME280;69666;52.136;5.424;2024-03-08T09:45:21;101488.78;;;13.47;51.05
77662;BME280;69666;52.136;5.424;2024-03-08T09:47:49;101487.00;;;13.59;51.37
77662;BME280;69666;52.136;5.424;2024-03-08T09:50:21;101483.97;;;13.74;51.54
77662;BME280;69666;52.136;5.424;2024-03-08T09:52:49;101478.91;;;13.84;49.58
77662;BME280;69666;52.136;5.424;2024-03-08T09:55:17;101474.53;;;13.83;49.71
77662;BME280;69666;52.136;5.424;2024-03-08T09:58:02;101473.81;;;13.94;51.03
77662;BME280;69666;52.136;5.424;2024-03-08T10:00:51;101467.09;;;14.21;48.67
77662;BME280;69666;52.136;5.424;2024-03-08T10:03:21;101466.25;;;14.03;49.03
77662;BME280;69666;52.136;5.424;2024-03-08T10:05:50;101457.03;;;14.04;50.96
77662;BME280;69666;52.136;5.424;2024-03-08T10:08:17;101462.78;;;14.14;47.90
77662;BME280;69666;52.136;5.424;2024-03-08T10:10:45;101462.50;;;14.22;49.25
77662;BME280;69666;52.136;5.424;2024-03-08T10:13:24;101452.94;;;14.19;48.69
77662;BME280;69666;52.136;5.424;2024-03-08T10:15:53;101457.16;;;14.34;46.70
77662;BME280;69666;52.136;5.424;2024-03-08T10:18:21;101443.56;;;13.97;49.08
77662;BME280;69666;52.136;5.424;2024-03-08T10:21:08;101433.78;;;13.71;50.65
77662;BME280;69666;52.136;5.424;2024-03-08T10:23:39;101431.72;;;13.48;49.75
77662;BME280;69666;52.136;5.424;2024-03-08T10:28:39;101416.69;;;13.14;52.48
77662;BME280;69666;52.136;5.424;2024-03-08T10:31:09;101424.03;;;13.07;52.13
77662;BME280;69666;52.136;5.424;2024-03-08T10:33:36;101414.41;;;13.18;54.09
77662;BME280;69666;52.136;5.424;2024-03-08T10:36:08;101402.03;;;13.35;51.55
77662;BME280;69666;52.136;5.424;2024-03-08T10:38:42;101394.56;;;13.55;50.21
77662;BME280;69666;52.136;5.424;2024-03-08T10:41:16;101400.63;;;13.76;49.99
77662;BME280;69666;52.136;5.424;2024-03-08T10:47:15;101390.44;;;14.33;48.82
77662;BME280;69666;52.136;5.424;2024-03-08T10:52:20;101380.00;;;14.84;46.04
77662;BME280;69666;52.136;5.424;2024-03-08T10:54:50;101377.56;;;14.95;46.86
77662;BME280;69666;52.136;5.424;2024-03-08T10:57:20;101371.72;;;15.21;44.74
77662;BME280;69666;52.136;5.424;2024-03-08T10:59:52;101372.81;;;15.43;46.70
77662;BME280;69666;52.136;5.424;2024-03-08T11:02:25;101365.91;;;15.59;45.99
77662;BME280;69666;52.136;5.424;2024-03-08T11:04:55;101345.09;;;15.65;47.12
77662;BME280;69666;52.136;5.424;2024-03-08T11:07:25;101346.75;;;15.89;46.58
77662;BME280;69666;52.136;5.424;2024-03-08T11:09:55;101338.13;;;15.92;43.83
77662;BME280;69666;52.136;5.424;2024-03-08T11:12:28;101338.94;;;16.04;44.57
77662;BME280;69666;52.136;5.424;2024-03-08T11:15:22;101321.66;;;16.50;45.47
77662;BME280;69666;52.136;5.424;2024-03-08T11:17:52;101327.97;;;16.68;43.84
77662;BME280;69666;52.136;5.424;2024-03-08T11:20:23;101311.59;;;16.51;43.69
77662;BME280;69666;52.136;5.424;2024-03-08T11:22:53;101309.47;;;16.53;43.45
77662;BME280;69666;52.136;5.424;2024-03-08T11:25:38;101303.56;;;16.44;41.79
77662;BME280;69666;52.136;5.424;2024-03-08T11:28:19;101292.94;;;16.43;42.14
77662;BME280;69666;52.136;5.424;2024-03-08T11:33:28;101278.53;;;16.02;42.80
77662;BME280;69666;52.136;5.424;2024-03-08T11:36:21;101278.84;;;15.66;41.52
77662;BME280;69666;52.136;5.424;2024-03-08T11:38:51;101276.50;;;15.58;43.57
77662;BME280;69666;52.136;5.424;2024-03-08T11:41:22;101270.69;;;15.31;42.80
77662;BME280;69666;52.136;5.424;2024-03-08T11:44:03;101265.00;;;15.09;43.03
77662;BME280;69666;52.136;5.424;2024-03-08T11:46:34;101266.19;;;14.89;43.76
77662;BME280;69666;52.136;5.424;2024-03-08T11:49:02;101269.91;;;14.77;44.92
77662;BME280;69666;52.136;5.424;2024-03-08T11:51:31;101256.31;;;14.65;44.13
77662;BME280;69666;52.136;5.424;2024-03-08T11:53:59;101262.53;;;14.42;46.36
77662;BME280;69666;52.136;5.424;2024-03-08T11:56:27;101244.16;;;14.26;44.80
77662;BME280;69666;52.136;5.424;2024-03-08T11:58:56;101248.38;;;13.92;45.02
77662;BME280;69666;52.136;5.424;2024-03-08T12:01:25;101237.09;;;13.40;43.35
77662;BME280;69666;52.136;5.424;2024-03-08T12:03:57;101225.00;;;13.18;44.34
77662;BME280;69666;52.136;5.424;2024-03-08T12:06:36;101233.09;;;13.00;46.63
77662;BME280;69666;52.136;5.424;2024-03-08T12:09:09;101234.94;;;12.74;47.21
77662;BME280;69666;52.136;5.424;2024-03-08T12:11:37;101217.09;;;12.42;47.37
77662;BME280;69666;52.136;5.424;2024-03-08T12:14:06;101219.06;;;12.28;47.53
77662;BME280;69666;52.136;5.424;2024-03-08T12:16:33;101219.84;;;11.97;47.10
77662;BME280;69666;52.136;5.424;2024-03-08T12:19:01;101212.25;;;11.81;47.65
77662;BME280;69666;52.136;5.424;2024-03-08T12:21:32;101212.66;;;11.78;48.84
77662;BME280;69666;52.136;5.424;2024-03-08T12:24:03;101203.34;;;11.60;48.19
77662;BME280;69666;52.136;5.424;2024-03-08T12:26:31;101206.50;;;11.44;47.43
77662;BME280;69666;52.136;5.424;2024-03-08T12:31:52;101189.13;;;11.34;50.18
77662;BME280;69666;52.136;5.424;2024-03-08T12:34:23;101191.22;;;11.32;50.18
77662;BME280;69666;52.136;5.424;2024-03-08T12:36:52;101185.41;;;11.28;50.52
77662;BME280;69666;52.136;5.424;2024-03-08T12:39:24;101177.75;;;11.18;50.13
77662;BME280;69666;52.136;5.424;2024-03-08T12:42:12;101175.91;;;11.06;49.41
77662;BME280;69666;52.136;5.424;2024-03-08T12:44:39;101178.38;;;11.07;49.00
77662;BME280;69666;52.136;5.424;2024-03-08T12:47:12;101177.59;;;10.87;48.89
77662;BME280;69666;52.136;5.424;2024-03-08T12:49:43;101174.72;;;10.82;50.45
77662;BME280;69666;52.136;5.424;2024-03-08T12:52:12;101161.84;;;10.84;49.84
77662;BME280;69666;52.136;5.424;2024-03-08T12:54:40;101165.59;;;10.70;49.79
77662;BME280;69666;52.136;5.424;2024-03-08T12:57:08;101175.53;;;10.69;51.11
77662;BME280;69666;52.136;5.424;2024-03-08T12:59:36;101158.53;;;10.62;50.50
77662;BME280;69666;52.136;5.424;2024-03-08T13:02:03;101171.81;;;10.57;50.87
77662;BME280;69666;52.136;5.424;2024-03-08T13:04:33;101154.81;;;10.50;50.27
77662;BME280;69666;52.136;5.424;2024-03-08T13:07:00;101154.38;;;10.46;49.33
77662;BME280;69666;52.136;5.424;2024-03-08T13:09:29;101144.44;;;10.47;51.60
77662;BME280;69666;52.136;5.424;2024-03-08T13:11:56;101142.16;;;10.44;51.44
77662;BME280;69666;52.136;5.424;2024-03-08T13:14:26;101136.59;;;10.39;50.98
77662;BME280;69666;52.136;5.424;2024-03-08T13:16:53;101134.31;;;10.36;50.28
77662;BME280;69666;52.136;5.424;2024-03-08T13:19:23;101136.16;;;10.28;50.84
77662;BME280;69666;52.136;5.424;2024-03-08T13:21:51;101133.91;;;10.39;50.85
77662;BME280;69666;52.136;5.424;2024-03-08T13:24:18;101127.22;;;10.41;51.45
77662;BME280;69666;52.136;5.424;2024-03-08T13:26:47;101120.84;;;10.36;51.21